createdAt,value
2022-08-12T00:00:09.901Z,22.75
2022-08-12T00:02:56.045Z,22.73
2022-08-12T00:06:01.746Z,22.71
2022-08-12T00:08:55.392Z,22.71
2022-08-12T00:11:43.153Z,22.73
2022-08-12T00:14:29.621Z,22.70
2022-08-12T00:17:15.757Z,22.67
2022-08-12T00:20:01.280Z,22.67
2022-08-12T00:22:59.471Z,22.60
2022-08-12T00:26:21.101Z,22.36
2022-08-12T00:29:06.220Z,22.22
2022-08-12T00:31:51.800Z,22.24
2022-08-12T00:34:37.492Z,22.05
2022-08-12T00:37:23.950Z,22.17
2022-08-12T00:40:11.782Z,22.20
2022-08-12T00:42:41.243Z,22.16
2022-08-12T00:45:09.261Z,22.18
2022-08-12T00:47:37.961Z,22.14
2022-08-12T00:50:06.401Z,22.13
2022-08-12T00:52:35.339Z,22.09
2022-08-12T00:55:05.701Z,22.03
2022-08-12T00:57:38.251Z,22.01
2022-08-12T01:00:12.041Z,22.05
2022-08-12T01:02:42.620Z,21.94
2022-08-12T01:05:41.090Z,21.92
2022-08-12T01:08:27.141Z,21.89
2022-08-12T01:11:14.401Z,21.87
2022-08-12T01:13:48.252Z,21.87
2022-08-12T01:16:22.870Z,21.80
2022-08-12T01:18:52.840Z,21.68
2022-08-12T01:21:51.102Z,21.59
2022-08-12T01:24:36.882Z,21.33
2022-08-12T01:27:07.985Z,21.28
2022-08-12T01:29:42.043Z,21.22
2022-08-12T01:32:12.840Z,21.17
2022-08-12T01:34:45.560Z,21.23
2022-08-12T01:37:14.461Z,21.20
2022-08-12T01:40:33.444Z,21.13
2022-08-12T01:42:32.720Z,21.07
2022-08-12T01:45:02.254Z,21.15
2022-08-12T01:47:47.349Z,20.89
2022-08-12T01:50:40.321Z,20.85
2022-08-12T01:53:16.065Z,20.83
2022-08-12T01:55:46.579Z,20.88
2022-08-12T01:58:29.201Z,20.80
2022-08-12T02:01:08.999Z,20.78
2022-08-12T02:04:16.663Z,20.71
2022-08-12T02:07:52.860Z,20.74
2022-08-12T02:10:56.819Z,20.74
2022-08-12T02:13:50.237Z,20.81
2022-08-12T02:16:30.624Z,20.79
2022-08-12T02:19:29.837Z,20.85
2022-08-12T02:22:17.570Z,20.86
2022-08-12T02:24:46.419Z,20.83
2022-08-12T02:27:17.569Z,20.90
2022-08-12T02:29:45.427Z,20.86
2022-08-12T02:32:13.910Z,20.86
2022-08-12T02:34:43.690Z,20.90
2022-08-12T02:37:15.720Z,20.86
2022-08-12T02:39:48.810Z,20.81
2022-08-12T02:42:19.330Z,20.84
2022-08-12T02:44:51.190Z,20.81
2022-08-12T02:47:58.365Z,20.74
2022-08-12T02:50:10.990Z,20.76
2022-08-12T02:52:39.086Z,20.76
2022-08-12T02:55:28.723Z,20.77
2022-08-12T02:58:07.052Z,20.73
2022-08-12T03:00:37.971Z,20.72
2022-08-12T03:03:11.790Z,20.75
2022-08-12T03:05:58.341Z,20.60
2022-08-12T03:08:32.150Z,20.54
2022-08-12T03:11:11.892Z,20.50
2022-08-12T03:13:45.844Z,20.47
2022-08-12T03:16:14.189Z,20.42
2022-08-12T03:18:46.093Z,20.32
2022-08-12T03:21:17.505Z,20.36
2022-08-12T03:24:07.230Z,20.27
2022-08-12T03:26:37.949Z,20.18
2022-08-12T03:29:07.183Z,20.17
2022-08-12T03:31:34.682Z,20.09
2022-08-12T03:34:05.000Z,20.08
2022-08-12T03:36:35.538Z,20.10
2022-08-12T03:39:36.334Z,19.99
2022-08-12T03:42:38.943Z,19.98
2022-08-12T03:45:52.103Z,19.99
2022-08-12T03:48:39.354Z,19.95
2022-08-12T03:51:25.409Z,19.98
2022-08-12T03:54:11.755Z,19.95
2022-08-12T03:56:58.294Z,19.94
2022-08-12T03:59:44.490Z,19.94
2022-08-12T04:02:16.012Z,19.99
2022-08-12T04:04:45.832Z,19.95
2022-08-12T04:07:13.852Z,19.94
2022-08-12T04:09:43.559Z,19.91
2022-08-12T04:12:40.182Z,19.91
2022-08-12T04:15:14.731Z,19.82
2022-08-12T04:18:06.392Z,19.84
2022-08-12T04:20:30.789Z,19.80
2022-08-12T04:22:58.600Z,19.85
2022-08-12T04:25:28.491Z,19.90
2022-08-12T04:27:55.444Z,19.94
2022-08-12T04:30:32.542Z,19.98
2022-08-12T04:33:00.805Z,19.98
2022-08-12T04:35:28.619Z,20.04
2022-08-12T04:38:00.319Z,19.95
2022-08-12T04:40:30.930Z,19.96
2022-08-12T04:42:58.908Z,20.04
2022-08-12T04:45:26.000Z,20.18
2022-08-12T04:47:53.209Z,20.28
2022-08-12T04:50:33.700Z,20.33
2022-08-12T04:53:03.450Z,20.46
2022-08-12T04:55:30.413Z,20.56
2022-08-12T04:57:57.439Z,20.59
2022-08-12T05:00:24.451Z,20.66
2022-08-12T05:02:52.591Z,20.77
2022-08-12T05:05:22.409Z,20.80
2022-08-12T05:07:54.766Z,20.83
2022-08-12T05:10:33.670Z,20.90
2022-08-12T05:13:07.681Z,20.98
2022-08-12T05:16:03.592Z,21.01
2022-08-12T05:18:29.042Z,21.11
2022-08-12T05:20:59.041Z,21.14
2022-08-12T05:23:27.181Z,21.17
2022-08-12T05:25:57.423Z,21.23
2022-08-12T05:28:27.360Z,21.31
2022-08-12T05:30:54.999Z,21.40
2022-08-12T05:33:25.792Z,21.66
2022-08-12T05:35:52.929Z,21.89
2022-08-12T05:38:38.909Z,22.05
2022-08-12T05:41:19.300Z,22.22
2022-08-12T05:43:54.650Z,22.25
2022-08-12T05:46:23.350Z,22.35
2022-08-12T05:48:51.647Z,22.40
2022-08-12T05:51:19.091Z,22.37
2022-08-12T05:53:46.130Z,22.47
2022-08-12T05:56:24.229Z,22.25
2022-08-12T05:58:53.294Z,22.27
2022-08-12T06:02:10.230Z,22.27
2022-08-12T06:04:09.849Z,22.36
2022-08-12T06:06:41.979Z,22.03
2022-08-12T06:09:11.625Z,22.19
2022-08-12T06:11:53.647Z,22.11
2022-08-12T06:14:28.712Z,22.20
2022-08-12T06:16:57.922Z,22.39
2022-08-12T06:19:25.911Z,22.45
2022-08-12T06:22:12.929Z,22.59
2022-08-12T06:24:39.958Z,22.70
2022-08-12T06:27:07.819Z,22.81
2022-08-12T06:29:35.895Z,22.93
2022-08-12T06:32:27.467Z,23.05
2022-08-12T06:35:25.790Z,23.14
2022-08-12T06:37:51.309Z,23.22
2022-08-12T06:40:42.531Z,23.26
2022-08-12T06:43:09.677Z,23.41
2022-08-12T06:45:45.239Z,23.46
2022-08-12T06:48:13.154Z,23.53
2022-08-12T06:50:40.477Z,23.56
2022-08-12T06:53:09.519Z,23.61
2022-08-12T06:55:36.962Z,23.57
2022-08-12T06:58:10.521Z,23.69
2022-08-12T07:00:38.197Z,23.70
2022-08-12T07:03:22.423Z,23.82
2022-08-12T07:05:50.839Z,23.81
2022-08-12T07:08:18.781Z,23.80
2022-08-12T07:10:53.680Z,23.94
2022-08-12T07:13:20.841Z,23.98
2022-08-12T07:15:47.880Z,23.90
2022-08-12T07:18:20.845Z,23.91
2022-08-12T07:20:53.053Z,23.95
2022-08-12T07:23:20.605Z,23.99
2022-08-12T07:25:48.012Z,24.03
2022-08-12T07:28:23.862Z,23.88
2022-08-12T07:30:55.421Z,23.92
2022-08-12T07:33:29.290Z,24.03
2022-08-12T07:35:59.801Z,24.09
2022-08-12T07:38:33.843Z,24.15
2022-08-12T07:41:14.589Z,24.18
2022-08-12T07:43:51.809Z,24.04
2022-08-12T07:46:22.621Z,24.06
2022-08-12T07:48:52.660Z,23.99
2022-08-12T07:51:25.620Z,23.96
2022-08-12T07:54:00.176Z,23.93
2022-08-12T07:56:28.487Z,23.88
2022-08-12T07:58:59.494Z,23.80
2022-08-12T08:01:26.896Z,23.75
2022-08-12T08:04:18.415Z,23.71
2022-08-12T08:06:47.116Z,23.66
2022-08-12T08:09:17.271Z,23.69
2022-08-12T08:12:19.342Z,23.75
2022-08-12T08:14:48.370Z,23.79
2022-08-12T08:17:17.922Z,23.90
2022-08-12T08:20:02.936Z,23.98
2022-08-12T08:22:41.095Z,24.02
2022-08-12T08:25:35.338Z,24.16
2022-08-12T08:28:00.381Z,24.30
2022-08-12T08:30:29.621Z,24.37
2022-08-12T08:32:56.881Z,24.46
2022-08-12T08:35:26.004Z,24.63
2022-08-12T08:38:17.646Z,24.71
2022-08-12T08:42:17.445Z,24.77
2022-08-12T08:44:06.085Z,24.83
2022-08-12T08:46:38.054Z,24.90
2022-08-12T08:49:06.224Z,24.95
2022-08-12T08:51:34.026Z,25.08
2022-08-12T08:54:01.151Z,25.10
2022-08-12T08:56:31.012Z,25.16
2022-08-12T08:58:58.466Z,25.21
2022-08-12T09:01:26.469Z,25.30
2022-08-12T09:05:07.352Z,25.32
2022-08-12T09:06:59.765Z,25.55
2022-08-12T09:09:34.228Z,25.69
2022-08-12T09:12:33.031Z,25.82
2022-08-12T09:15:16.899Z,25.88
2022-08-12T09:17:57.291Z,26.10
2022-08-12T09:20:29.414Z,26.30
2022-08-12T09:22:58.926Z,26.37
2022-08-12T09:25:26.459Z,26.47
2022-08-12T09:28:05.074Z,26.64
2022-08-12T09:30:41.245Z,26.73
2022-08-12T09:33:15.012Z,26.80
2022-08-12T09:35:47.059Z,26.86
2022-08-12T09:38:32.350Z,27.03
2022-08-12T09:42:08.032Z,27.15
2022-08-12T09:44:06.357Z,27.28
2022-08-12T09:46:53.335Z,27.36
2022-08-12T09:49:23.971Z,27.29
2022-08-12T09:51:54.451Z,27.32
2022-08-12T09:54:33.934Z,27.29
2022-08-12T09:58:44.954Z,27.29
2022-08-12T10:00:13.703Z,27.26
2022-08-12T10:03:31.991Z,27.15
2022-08-12T10:06:26.730Z,26.96
2022-08-12T10:08:52.435Z,26.92
2022-08-12T10:12:10.797Z,26.80
2022-08-12T10:14:35.192Z,26.82
2022-08-12T10:17:08.837Z,26.82
2022-08-12T10:19:38.070Z,26.72
2022-08-12T10:22:16.559Z,26.75
2022-08-12T10:24:43.896Z,26.71
2022-08-12T10:28:04.664Z,26.79
2022-08-12T10:30:39.540Z,26.78
2022-08-12T10:33:18.661Z,26.86
2022-08-12T10:35:46.440Z,26.97
2022-08-12T10:38:38.882Z,27.15
2022-08-12T10:41:21.299Z,27.34
2022-08-12T10:43:55.039Z,27.54
2022-08-12T10:46:30.492Z,27.84
2022-08-12T10:49:05.956Z,27.88
2022-08-12T10:52:04.893Z,28.05
2022-08-12T10:54:36.520Z,28.10
2022-08-12T10:57:03.553Z,28.10
2022-08-12T10:59:39.132Z,28.17
2022-08-12T11:13:14.911Z,27.97
2022-08-12T11:16:18.912Z,28.08
2022-08-12T11:18:31.010Z,28.31
2022-08-12T11:20:58.990Z,28.52
2022-08-12T11:23:36.917Z,28.84
2022-08-12T11:26:08.097Z,29.15
2022-08-12T11:28:37.130Z,29.41
2022-08-12T11:31:07.092Z,29.60
2022-08-12T11:34:05.191Z,29.75
2022-08-12T11:36:24.199Z,30.11
2022-08-12T11:38:53.328Z,30.34
2022-08-12T11:41:30.956Z,30.43
2022-08-12T11:44:20.209Z,30.55
2022-08-12T11:46:51.314Z,30.74
2022-08-12T11:49:32.448Z,30.85
2022-08-12T11:52:03.476Z,30.95
2022-08-12T11:54:31.615Z,31.01
2022-08-12T11:57:02.805Z,31.26
2022-08-12T12:02:20.814Z,31.59
2022-08-12T12:04:52.728Z,31.89
2022-08-12T12:07:33.750Z,32.03
2022-08-12T12:10:14.601Z,32.28
2022-08-12T12:12:49.496Z,32.39
2022-08-12T12:15:24.739Z,32.45
2022-08-12T12:17:55.709Z,32.57
2022-08-12T12:20:26.120Z,32.67
2022-08-12T12:22:57.537Z,32.54
2022-08-12T12:25:59.590Z,32.54
2022-08-12T12:28:36.538Z,32.71
2022-08-12T12:31:00.481Z,32.62
2022-08-12T12:33:57.534Z,32.52
2022-08-12T12:36:20.349Z,32.66
2022-08-12T12:38:51.354Z,32.51
2022-08-12T12:41:18.454Z,32.22
2022-08-12T12:43:56.600Z,32.11
2022-08-12T12:46:31.705Z,31.94
2022-08-12T12:48:58.646Z,31.75
2022-08-12T12:51:49.251Z,31.68
2022-08-12T12:54:13.048Z,31.91
2022-08-12T12:56:44.636Z,31.98
2022-08-12T12:59:55.275Z,31.94
2022-08-12T13:02:07.732Z,32.23
2022-08-12T13:04:37.738Z,32.34
2022-08-12T13:07:06.577Z,32.63
2022-08-12T13:09:36.205Z,32.72
2022-08-12T13:12:10.390Z,33.06
2022-08-12T13:14:39.625Z,33.02
2022-08-12T13:17:07.480Z,33.25
2022-08-12T13:19:43.463Z,32.83
2022-08-12T13:22:19.197Z,33.04
2022-08-12T13:24:52.206Z,32.90
2022-08-12T13:27:28.235Z,32.83
2022-08-12T13:30:06.650Z,32.81
2022-08-12T13:32:34.352Z,32.87
2022-08-12T13:35:03.785Z,32.76
2022-08-12T13:37:43.961Z,32.65
2022-08-12T13:40:18.914Z,32.52
2022-08-12T13:42:49.026Z,32.20
2022-08-12T13:45:18.264Z,32.24
2022-08-12T13:47:57.614Z,31.63
2022-08-12T13:50:32.945Z,31.64
2022-08-12T13:53:23.053Z,31.39
2022-08-12T13:55:59.351Z,31.41
2022-08-12T13:58:28.254Z,31.33
2022-08-12T14:00:58.711Z,31.11
2022-08-12T14:03:28.500Z,31.18
2022-08-12T14:06:15.474Z,31.24
2022-08-12T14:08:43.757Z,31.40
2022-08-12T14:11:12.508Z,31.40
2022-08-12T14:14:05.232Z,31.70
2022-08-12T14:16:37.415Z,31.62
2022-08-12T14:19:22.312Z,31.20
2022-08-12T14:22:00.709Z,30.94
2022-08-12T14:24:35.908Z,30.81
2022-08-12T14:27:09.372Z,30.80
2022-08-12T14:30:05.883Z,30.81
2022-08-12T14:32:35.582Z,30.61
2022-08-12T14:35:08.974Z,30.56
2022-08-12T14:37:57.323Z,30.37
2022-08-12T14:40:27.737Z,30.07
2022-08-12T14:42:56.886Z,29.87
2022-08-12T14:45:37.199Z,29.50
2022-08-12T14:48:14.785Z,29.25
2022-08-12T14:51:03.139Z,29.01
2022-08-12T14:55:38.574Z,28.81
2022-08-12T14:59:24.849Z,28.57
2022-08-12T15:01:54.612Z,28.34
2022-08-12T15:04:26.237Z,28.27
2022-08-12T15:06:53.396Z,28.11
2022-08-12T15:09:29.265Z,28.03
2022-08-12T15:12:03.389Z,27.97
2022-08-12T15:14:32.124Z,27.82
2022-08-12T15:17:02.909Z,27.77
2022-08-12T15:20:07.573Z,27.63
2022-08-12T15:22:38.600Z,27.57
2022-08-12T15:25:07.421Z,27.47
2022-08-12T15:28:05.438Z,27.44
2022-08-12T15:30:31.340Z,27.33
2022-08-12T15:32:59.464Z,27.28
2022-08-12T15:35:38.231Z,27.26
2022-08-12T15:38:20.607Z,27.23
2022-08-12T15:40:52.545Z,27.08
2022-08-12T15:43:52.056Z,27.08
2022-08-12T15:46:15.497Z,27.03
2022-08-12T15:48:47.625Z,27.05
2022-08-12T15:51:58.448Z,26.94
2022-08-12T15:54:35.109Z,26.83
2022-08-12T15:57:07.813Z,26.73
2022-08-12T16:00:00.527Z,26.66
2022-08-12T16:02:29.485Z,26.60
2022-08-12T16:04:57.456Z,26.62
2022-08-12T16:07:29.962Z,26.67
2022-08-12T16:10:07.018Z,26.66
2022-08-12T16:12:55.130Z,26.61
2022-08-12T16:15:26.360Z,26.73
2022-08-12T16:18:14.781Z,26.70
2022-08-12T16:20:46.828Z,26.71
2022-08-12T16:23:36.043Z,26.67
2022-08-12T16:26:15.306Z,26.69
2022-08-12T16:28:48.231Z,26.78
2022-08-12T16:31:23.452Z,26.72
2022-08-12T16:33:59.001Z,26.83
2022-08-12T16:36:29.552Z,26.84
2022-08-12T16:38:56.903Z,26.62
2022-08-12T16:41:24.356Z,26.73
2022-08-12T16:43:55.273Z,26.80
2022-08-12T16:46:33.349Z,26.72
2022-08-12T16:49:09.338Z,26.57
2022-08-12T16:51:46.314Z,26.23
2022-08-12T16:54:17.274Z,25.96
2022-08-12T16:56:54.495Z,25.66
2022-08-12T16:59:31.100Z,25.28
2022-08-12T17:02:18.089Z,25.11
2022-08-12T17:05:03.157Z,24.98
2022-08-12T17:07:36.856Z,24.75
2022-08-12T17:10:09.804Z,24.77
2022-08-12T17:12:39.391Z,24.59
2022-08-12T17:15:51.215Z,24.52
2022-08-12T17:18:42.624Z,24.37
2022-08-12T17:20:47.439Z,24.27
2022-08-12T17:23:19.682Z,24.32
2022-08-12T17:25:50.644Z,24.31
2022-08-12T17:28:19.314Z,24.27
2022-08-12T17:30:57.490Z,24.14
2022-08-12T17:33:33.690Z,24.02
2022-08-12T17:36:03.342Z,24.02
2022-08-12T17:38:30.635Z,23.86
2022-08-12T17:40:57.948Z,23.89
2022-08-12T17:43:51.805Z,23.91
2022-08-12T17:46:24.200Z,23.92
2022-08-12T17:48:59.952Z,23.95
2022-08-12T17:51:31.599Z,24.00
2022-08-12T17:54:10.109Z,24.02
2022-08-12T17:56:39.352Z,23.95
2022-08-12T17:59:12.404Z,23.97
2022-08-12T18:01:45.349Z,23.93
2022-08-12T18:04:21.852Z,23.86
2022-08-12T18:06:55.700Z,23.85
2022-08-12T18:09:32.138Z,23.72
2022-08-12T18:12:24.634Z,23.64
2022-08-12T18:14:58.776Z,23.63
2022-08-12T18:17:27.254Z,23.62
2022-08-12T18:20:05.626Z,23.62
2022-08-12T18:22:35.351Z,23.53
2022-08-12T18:25:06.817Z,23.59
2022-08-12T18:28:15.967Z,23.49
2022-08-12T18:30:52.727Z,23.47
2022-08-12T18:33:25.812Z,23.38
2022-08-12T18:35:56.696Z,23.30
2022-08-12T18:38:26.256Z,23.19
2022-08-12T18:41:21.917Z,23.16
2022-08-12T18:44:02.818Z,23.05
2022-08-12T18:46:54.149Z,23.03
2022-08-12T18:49:39.726Z,23.00
2022-08-12T18:52:11.486Z,22.95
2022-08-12T18:54:52.950Z,22.90
2022-08-12T18:58:06.404Z,22.92
2022-08-12T19:00:21.331Z,22.91
2022-08-12T19:02:51.218Z,22.81
2022-08-12T19:05:18.320Z,22.80
2022-08-12T19:08:01.748Z,22.77
2022-08-12T19:10:31.332Z,22.70
2022-08-12T19:13:23.004Z,22.62
2022-08-12T19:15:58.017Z,22.57
2022-08-12T19:18:31.842Z,22.49
2022-08-12T19:21:11.960Z,22.42
2022-08-12T19:23:44.139Z,22.37
2022-08-12T19:26:12.799Z,22.29
2022-08-12T19:28:41.364Z,22.34
2022-08-12T19:31:55.438Z,22.30
2022-08-12T19:37:38.673Z,22.21
2022-08-12T19:40:31.361Z,22.19
2022-08-12T19:43:22.019Z,22.14
2022-08-12T19:45:56.788Z,22.08
2022-08-12T19:48:30.792Z,22.06
2022-08-12T19:51:09.257Z,22.09
2022-08-12T19:53:58.096Z,22.08
2022-08-12T19:56:28.259Z,22.06
2022-08-12T19:59:18.749Z,22.05
2022-08-12T20:02:03.354Z,22.02
2022-08-12T20:04:37.771Z,21.92
2022-08-12T20:07:06.750Z,21.90
2022-08-12T20:09:39.718Z,21.91
2022-08-12T20:12:09.350Z,21.93
2022-08-12T20:14:43.716Z,21.88
2022-08-12T20:17:11.388Z,21.88
2022-08-12T20:20:05.611Z,21.85
2022-08-12T20:22:43.533Z,21.81
2022-08-12T20:25:11.969Z,21.75
2022-08-12T20:28:02.839Z,21.75
2022-08-12T20:30:52.834Z,21.68
2022-08-12T20:33:23.073Z,21.67
2022-08-12T20:36:14.344Z,21.67
2022-08-12T20:38:46.910Z,21.63
2022-08-12T20:41:16.226Z,21.61
2022-08-12T20:43:44.869Z,21.61
2022-08-12T20:46:13.749Z,21.55
2022-08-12T20:48:43.679Z,21.51
2022-08-12T20:51:19.020Z,21.53
2022-08-12T20:53:58.408Z,21.52
2022-08-12T20:56:30.692Z,21.53
2022-08-12T20:59:01.317Z,21.46
2022-08-12T21:01:47.085Z,21.41
2022-08-12T21:04:36.109Z,21.32
2022-08-12T21:07:09.008Z,21.24
2022-08-12T21:09:47.341Z,21.19
2022-08-12T21:12:27.700Z,21.08
2022-08-12T21:15:17.628Z,21.03
2022-08-12T21:18:09.837Z,20.92
2022-08-12T21:20:37.817Z,20.89
2022-08-12T21:23:06.658Z,20.88
2022-08-12T21:25:44.275Z,20.81
2022-08-12T21:28:15.738Z,20.72
2022-08-12T21:31:11.386Z,20.63
2022-08-12T21:33:58.378Z,20.59
2022-08-12T21:36:32.071Z,20.53
2022-08-12T21:39:18.106Z,20.47
2022-08-12T21:41:50.108Z,20.39
2022-08-12T21:44:24.024Z,20.34
2022-08-12T21:47:21.230Z,20.31
2022-08-12T21:50:03.784Z,20.26
2022-08-12T21:52:40.421Z,20.26
2022-08-12T21:55:18.164Z,20.27
2022-08-12T21:57:54.850Z,20.20
2022-08-12T22:00:36.944Z,20.14
2022-08-12T22:04:03.947Z,20.13
2022-08-12T22:06:30.917Z,20.17
2022-08-12T22:09:15.859Z,20.14
2022-08-12T22:11:49.256Z,20.13
2022-08-12T22:14:24.331Z,20.10
2022-08-12T22:16:53.577Z,20.16
2022-08-12T22:19:22.665Z,20.20
2022-08-12T22:21:54.883Z,20.25
2022-08-12T22:24:27.756Z,20.22
2022-08-12T22:26:59.539Z,20.24
2022-08-12T22:30:01.075Z,20.27
2022-08-12T22:32:30.075Z,20.28
2022-08-12T22:35:22.238Z,20.26
2022-08-12T22:37:53.456Z,20.26
2022-08-12T22:40:22.818Z,20.20
2022-08-12T22:43:15.253Z,20.18
2022-08-12T22:46:01.591Z,20.03
2022-08-12T22:48:28.718Z,19.96
2022-08-12T22:50:59.370Z,19.96
2022-08-12T22:53:36.222Z,19.91
2022-08-12T22:56:08.192Z,19.91
2022-08-12T22:58:40.423Z,19.92
2022-08-12T23:01:11.306Z,19.94
2022-08-12T23:03:48.602Z,19.90
2022-08-12T23:06:24.089Z,19.90
2022-08-12T23:08:52.771Z,19.92
2022-08-12T23:11:23.632Z,19.88
2022-08-12T23:13:55.271Z,19.88
2022-08-12T23:16:31.917Z,19.87
2022-08-12T23:19:22.904Z,19.87
2022-08-12T23:22:04.363Z,19.90
2022-08-12T23:24:55.984Z,19.91
2022-08-12T23:27:52.192Z,19.94
2022-08-12T23:30:32.472Z,19.95
2022-08-12T23:33:19.949Z,19.90
2022-08-12T23:35:59.422Z,19.91
2022-08-12T23:38:32.428Z,19.85
2022-08-12T23:41:05.340Z,19.88
2022-08-12T23:43:38.807Z,19.89
2022-08-12T23:46:19.163Z,19.92
2022-08-12T23:48:47.925Z,19.89
2022-08-12T23:51:23.509Z,19.92
2022-08-12T23:53:59.803Z,19.93
2022-08-12T23:56:29.410Z,19.96
2022-08-12T23:58:58.582Z,19.99
